sensor_id;sensor_type;location;lat;lon;timestamp;P1;durP1;ratioP1;P2;durP2;ratioP2
54171;SDS011;40076;52.354;4.970;2024-02-14T00:01:03;20.73;;;17.33;;
54171;SDS011;40076;52.354;4.970;2024-02-14T00:03:29;20.30;;;16.23;;
54171;SDS011;40076;52.354;4.970;2024-02-14T00:05:54;20.52;;;17.95;;
54171;SDS011;40076;52.354;4.970;2024-02-14T00:08:22;20.98;;;16.52;;
54171;SDS011;40076;52.354;4.970;2024-02-14T00:10:47;21.00;;;17.90;;
54171;SDS011;40076;52.354;4.970;2024-02-14T00:13:13;22.88;;;18.42;;
54171;SDS011;40076;52.354;4.970;2024-02-14T00:15:39;21.50;;;17.67;;
54171;SDS011;40076;52.354;4.970;2024-02-14T00:18:05;20.50;;;18.05;;
54171;SDS011;40076;52.354;4.970;2024-02-14T00:20:30;22.23;;;17.70;;
54171;SDS011;40076;52.354;4.970;2024-02-14T00:22:58;21.13;;;17.73;;
54171;SDS011;40076;52.354;4.970;2024-02-14T00:25:26;19.77;;;17.38;;
54171;SDS011;40076;52.354;4.970;2024-02-14T00:27:51;19.88;;;17.50;;
54171;SDS011;40076;52.354;4.970;2024-02-14T00:30:19;19.55;;;17.33;;
54171;SDS011;40076;52.354;4.970;2024-02-14T00:32:44;20.58;;;16.45;;
54171;SDS011;40076;52.354;4.970;2024-02-14T00:35:09;21.48;;;17.35;;
54171;SDS011;40076;52.354;4.970;2024-02-14T00:37:35;20.63;;;17.20;;
54171;SDS011;40076;52.354;4.970;2024-02-14T00:40:00;21.65;;;18.13;;
54171;SDS011;40076;52.354;4.970;2024-02-14T00:42:26;22.27;;;17.55;;
54171;SDS011;40076;52.354;4.970;2024-02-14T00:44:52;22.35;;;18.42;;
54171;SDS011;40076;52.354;4.970;2024-02-14T00:47:17;20.67;;;17.88;;
54171;SDS011;40076;52.354;4.970;2024-02-14T00:49:46;23.63;;;19.73;;
54171;SDS011;40076;52.354;4.970;2024-02-14T00:52:11;25.65;;;20.52;;
54171;SDS011;40076;52.354;4.970;2024-02-14T00:54:37;26.30;;;21.20;;
54171;SDS011;40076;52.354;4.970;2024-02-14T00:57:07;23.77;;;21.20;;
54171;SDS011;40076;52.354;4.970;2024-02-14T00:59:32;27.00;;;21.60;;
54171;SDS011;40076;52.354;4.970;2024-02-14T01:01:58;26.60;;;22.67;;
54171;SDS011;40076;52.354;4.970;2024-02-14T01:04:24;26.00;;;23.20;;
54171;SDS011;40076;52.354;4.970;2024-02-14T01:06:49;27.75;;;22.38;;
54171;SDS011;40076;52.354;4.970;2024-02-14T01:09:16;29.73;;;24.08;;
54171;SDS011;40076;52.354;4.970;2024-02-14T01:11:42;27.30;;;23.80;;
54171;SDS011;40076;52.354;4.970;2024-02-14T01:14:07;26.10;;;22.13;;
54171;SDS011;40076;52.354;4.970;2024-02-14T01:16:33;30.65;;;24.15;;
54171;SDS011;40076;52.354;4.970;2024-02-14T01:18:58;26.98;;;23.17;;
54171;SDS011;40076;52.354;4.970;2024-02-14T01:21:24;28.38;;;23.23;;
54171;SDS011;40076;52.354;4.970;2024-02-14T01:23:49;28.42;;;24.45;;
54171;SDS011;40076;52.354;4.970;2024-02-14T01:26:15;30.05;;;25.38;;
54171;SDS011;40076;52.354;4.970;2024-02-14T01:28:40;28.35;;;24.30;;
54171;SDS011;40076;52.354;4.970;2024-02-14T01:31:05;29.67;;;22.63;;
54171;SDS011;40076;52.354;4.970;2024-02-14T01:33:31;31.60;;;24.50;;
54171;SDS011;40076;52.354;4.970;2024-02-14T01:35:56;31.88;;;26.33;;
54171;SDS011;40076;52.354;4.970;2024-02-14T01:38:22;33.30;;;26.20;;
54171;SDS011;40076;52.354;4.970;2024-02-14T01:40:48;33.28;;;28.08;;
54171;SDS011;40076;52.354;4.970;2024-02-14T01:43:13;35.25;;;27.58;;
54171;SDS011;40076;52.354;4.970;2024-02-14T01:45:40;36.92;;;28.25;;
54171;SDS011;40076;52.354;4.970;2024-02-14T01:48:05;37.35;;;29.50;;
54171;SDS011;40076;52.354;4.970;2024-02-14T01:50:32;37.42;;;28.98;;
54171;SDS011;40076;52.354;4.970;2024-02-14T01:52:59;38.58;;;29.85;;
54171;SDS011;40076;52.354;4.970;2024-02-14T01:55:26;38.90;;;30.77;;
54171;SDS011;40076;52.354;4.970;2024-02-14T01:57:53;40.33;;;30.35;;
54171;SDS011;40076;52.354;4.970;2024-02-14T02:00:19;42.65;;;31.35;;
54171;SDS011;40076;52.354;4.970;2024-02-14T02:02:44;42.35;;;31.85;;
54171;SDS011;40076;52.354;4.970;2024-02-14T02:05:11;41.63;;;30.60;;
54171;SDS011;40076;52.354;4.970;2024-02-14T02:07:37;44.95;;;31.75;;
54171;SDS011;40076;52.354;4.970;2024-02-14T02:10:08;39.63;;;30.45;;
54171;SDS011;40076;52.354;4.970;2024-02-14T02:12:36;39.45;;;30.17;;
54171;SDS011;40076;52.354;4.970;2024-02-14T02:15:04;40.30;;;31.10;;
54171;SDS011;40076;52.354;4.970;2024-02-14T02:17:38;35.92;;;29.02;;
54171;SDS011;40076;52.354;4.970;2024-02-14T02:20:04;34.67;;;27.48;;
54171;SDS011;40076;52.354;4.970;2024-02-14T02:22:32;33.13;;;26.70;;
54171;SDS011;40076;52.354;4.970;2024-02-14T02:25:00;31.15;;;25.65;;
54171;SDS011;40076;52.354;4.970;2024-02-14T02:27:26;30.13;;;23.88;;
54171;SDS011;40076;52.354;4.970;2024-02-14T02:29:52;32.95;;;26.33;;
54171;SDS011;40076;52.354;4.970;2024-02-14T02:32:18;30.77;;;24.05;;
54171;SDS011;40076;52.354;4.970;2024-02-14T02:34:43;28.90;;;23.38;;
54171;SDS011;40076;52.354;4.970;2024-02-14T02:37:10;30.55;;;23.48;;
54171;SDS011;40076;52.354;4.970;2024-02-14T02:39:36;29.42;;;24.00;;
54171;SDS011;40076;52.354;4.970;2024-02-14T02:42:02;27.90;;;23.20;;
54171;SDS011;40076;52.354;4.970;2024-02-14T02:44:28;30.05;;;21.98;;
54171;SDS011;40076;52.354;4.970;2024-02-14T02:46:54;23.70;;;20.13;;
54171;SDS011;40076;52.354;4.970;2024-02-14T02:49:20;24.65;;;18.83;;
54171;SDS011;40076;52.354;4.970;2024-02-14T02:51:46;23.27;;;19.10;;
54171;SDS011;40076;52.354;4.970;2024-02-14T02:54:11;23.17;;;18.92;;
54171;SDS011;40076;52.354;4.970;2024-02-14T02:56:37;21.25;;;17.75;;
54171;SDS011;40076;52.354;4.970;2024-02-14T02:59:02;21.95;;;18.20;;
54171;SDS011;40076;52.354;4.970;2024-02-14T03:01:28;22.80;;;17.60;;
54171;SDS011;40076;52.354;4.970;2024-02-14T03:03:59;23.88;;;17.60;;
54171;SDS011;40076;52.354;4.970;2024-02-14T03:06:25;19.80;;;14.73;;
54171;SDS011;40076;52.354;4.970;2024-02-14T03:08:51;17.90;;;14.68;;
54171;SDS011;40076;52.354;4.970;2024-02-14T03:11:18;17.17;;;13.98;;
54171;SDS011;40076;52.354;4.970;2024-02-14T03:13:44;17.38;;;13.88;;
54171;SDS011;40076;52.354;4.970;2024-02-14T03:16:09;15.23;;;13.02;;
54171;SDS011;40076;52.354;4.970;2024-02-14T03:18:39;15.98;;;11.98;;
54171;SDS011;40076;52.354;4.970;2024-02-14T03:21:05;16.98;;;12.77;;
54171;SDS011;40076;52.354;4.970;2024-02-14T03:23:31;18.33;;;13.25;;
54171;SDS011;40076;52.354;4.970;2024-02-14T03:25:56;20.27;;;14.73;;
54171;SDS011;40076;52.354;4.970;2024-02-14T03:28:22;21.75;;;14.30;;
54171;SDS011;40076;52.354;4.970;2024-02-14T03:30:51;27.83;;;14.80;;
54171;SDS011;40076;52.354;4.970;2024-02-14T03:33:17;27.33;;;14.38;;
54171;SDS011;40076;52.354;4.970;2024-02-14T03:35:42;28.40;;;13.63;;
54171;SDS011;40076;52.354;4.970;2024-02-14T03:38:08;26.90;;;13.82;;
54171;SDS011;40076;52.354;4.970;2024-02-14T03:40:34;37.90;;;13.73;;
54171;SDS011;40076;52.354;4.970;2024-02-14T03:43:00;38.05;;;13.90;;
54171;SDS011;40076;52.354;4.970;2024-02-14T03:45:27;30.50;;;13.50;;
54171;SDS011;40076;52.354;4.970;2024-02-14T03:47:54;24.95;;;12.88;;
54171;SDS011;40076;52.354;4.970;2024-02-14T03:50:22;27.88;;;10.60;;
54171;SDS011;40076;52.354;4.970;2024-02-14T03:52:48;28.05;;;11.07;;
54171;SDS011;40076;52.354;4.970;2024-02-14T03:55:14;27.45;;;10.57;;
54171;SDS011;40076;52.354;4.970;2024-02-14T03:57:44;30.83;;;9.10;;
54171;SDS011;40076;52.354;4.970;2024-02-14T04:00:10;33.15;;;8.73;;
54171;SDS011;40076;52.354;4.970;2024-02-14T04:02:36;32.60;;;8.40;;
54171;SDS011;40076;52.354;4.970;2024-02-14T04:05:05;30.10;;;7.43;;
54171;SDS011;40076;52.354;4.970;2024-02-14T04:07:32;34.20;;;8.00;;
54171;SDS011;40076;52.354;4.970;2024-02-14T04:09:59;41.55;;;9.40;;
54171;SDS011;40076;52.354;4.970;2024-02-14T04:12:24;36.15;;;6.78;;
54171;SDS011;40076;52.354;4.970;2024-02-14T04:14:53;32.67;;;6.78;;
54171;SDS011;40076;52.354;4.970;2024-02-14T04:17:18;43.15;;;9.88;;
54171;SDS011;40076;52.354;4.970;2024-02-14T04:19:43;24.83;;;5.63;;
54171;SDS011;40076;52.354;4.970;2024-02-14T04:22:09;34.55;;;6.20;;
54171;SDS011;40076;52.354;4.970;2024-02-14T04:24:36;30.40;;;6.30;;
54171;SDS011;40076;52.354;4.970;2024-02-14T04:27:05;36.97;;;7.10;;
54171;SDS011;40076;52.354;4.970;2024-02-14T04:29:30;39.20;;;6.38;;
54171;SDS011;40076;52.354;4.970;2024-02-14T04:31:58;30.88;;;5.15;;
54171;SDS011;40076;52.354;4.970;2024-02-14T04:34:25;29.85;;;5.75;;
54171;SDS011;40076;52.354;4.970;2024-02-14T04:36:54;34.53;;;6.35;;
54171;SDS011;40076;52.354;4.970;2024-02-14T04:39:20;29.35;;;6.25;;
54171;SDS011;40076;52.354;4.970;2024-02-14T04:41:45;27.88;;;5.70;;
54171;SDS011;40076;52.354;4.970;2024-02-14T04:44:13;37.83;;;6.53;;
54171;SDS011;40076;52.354;4.970;2024-02-14T04:46:38;32.80;;;6.22;;
54171;SDS011;40076;52.354;4.970;2024-02-14T04:49:08;32.30;;;6.40;;
54171;SDS011;40076;52.354;4.970;2024-02-14T04:51:36;35.22;;;7.03;;
54171;SDS011;40076;52.354;4.970;2024-02-14T04:54:02;39.42;;;6.75;;
54171;SDS011;40076;52.354;4.970;2024-02-14T04:56:28;33.10;;;6.30;;
54171;SDS011;40076;52.354;4.970;2024-02-14T04:58:56;38.08;;;7.03;;
54171;SDS011;40076;52.354;4.970;2024-02-14T05:01:23;36.60;;;7.38;;
54171;SDS011;40076;52.354;4.970;2024-02-14T05:03:49;41.10;;;6.90;;
54171;SDS011;40076;52.354;4.970;2024-02-14T05:06:17;35.40;;;7.32;;
54171;SDS011;40076;52.354;4.970;2024-02-14T05:08:46;34.22;;;7.47;;
54171;SDS011;40076;52.354;4.970;2024-02-14T05:11:11;34.75;;;6.55;;
54171;SDS011;40076;52.354;4.970;2024-02-14T05:13:37;37.47;;;7.65;;
54171;SDS011;40076;52.354;4.970;2024-02-14T05:16:03;41.90;;;7.50;;
54171;SDS011;40076;52.354;4.970;2024-02-14T05:18:29;38.75;;;7.65;;
54171;SDS011;40076;52.354;4.970;2024-02-14T05:20:55;40.03;;;6.88;;
54171;SDS011;40076;52.354;4.970;2024-02-14T05:23:20;44.00;;;7.80;;
54171;SDS011;40076;52.354;4.970;2024-02-14T05:25:48;32.95;;;7.82;;
54171;SDS011;40076;52.354;4.970;2024-02-14T05:28:15;33.22;;;7.13;;
54171;SDS011;40076;52.354;4.970;2024-02-14T05:30:42;43.60;;;8.75;;
54171;SDS011;40076;52.354;4.970;2024-02-14T05:33:08;36.72;;;7.47;;
54171;SDS011;40076;52.354;4.970;2024-02-14T05:35:34;34.83;;;7.60;;
54171;SDS011;40076;52.354;4.970;2024-02-14T05:37:59;33.88;;;8.55;;
54171;SDS011;40076;52.354;4.970;2024-02-14T05:40:25;36.70;;;8.32;;
54171;SDS011;40076;52.354;4.970;2024-02-14T05:42:50;33.03;;;7.50;;
54171;SDS011;40076;52.354;4.970;2024-02-14T05:45:18;34.60;;;7.93;;
54171;SDS011;40076;52.354;4.970;2024-02-14T05:47:43;37.17;;;7.63;;
54171;SDS011;40076;52.354;4.970;2024-02-14T05:50:09;33.22;;;8.02;;
54171;SDS011;40076;52.354;4.970;2024-02-14T05:52:36;34.50;;;7.50;;
54171;SDS011;40076;52.354;4.970;2024-02-14T05:55:05;35.08;;;7.63;;
54171;SDS011;40076;52.354;4.970;2024-02-14T05:57:33;34.25;;;8.77;;
54171;SDS011;40076;52.354;4.970;2024-02-14T05:59:59;30.75;;;7.60;;
54171;SDS011;40076;52.354;4.970;2024-02-14T06:02:24;36.78;;;8.50;;
54171;SDS011;40076;52.354;4.970;2024-02-14T06:04:50;24.95;;;7.65;;
54171;SDS011;40076;52.354;4.970;2024-02-14T06:07:16;36.20;;;8.77;;
54171;SDS011;40076;52.354;4.970;2024-02-14T06:09:41;30.92;;;8.40;;
54171;SDS011;40076;52.354;4.970;2024-02-14T06:12:07;26.17;;;7.55;;
54171;SDS011;40076;52.354;4.970;2024-02-14T06:14:32;36.55;;;8.80;;
54171;SDS011;40076;52.354;4.970;2024-02-14T06:17:00;29.40;;;8.30;;
54171;SDS011;40076;52.354;4.970;2024-02-14T06:19:26;34.13;;;9.50;;
54171;SDS011;40076;52.354;4.970;2024-02-14T06:21:51;30.67;;;8.65;;
54171;SDS011;40076;52.354;4.970;2024-02-14T06:24:19;36.70;;;9.13;;
54171;SDS011;40076;52.354;4.970;2024-02-14T06:26:47;31.73;;;9.18;;
54171;SDS011;40076;52.354;4.970;2024-02-14T06:29:12;29.98;;;9.35;;
54171;SDS011;40076;52.354;4.970;2024-02-14T06:31:38;32.50;;;11.43;;
54171;SDS011;40076;52.354;4.970;2024-02-14T06:34:05;37.53;;;11.27;;
54171;SDS011;40076;52.354;4.970;2024-02-14T06:36:32;34.88;;;10.32;;
54171;SDS011;40076;52.354;4.970;2024-02-14T06:38:57;39.58;;;10.77;;
54171;SDS011;40076;52.354;4.970;2024-02-14T06:41:23;37.15;;;11.27;;
54171;SDS011;40076;52.354;4.970;2024-02-14T06:43:48;38.40;;;10.93;;
54171;SDS011;40076;52.354;4.970;2024-02-14T06:46:16;37.97;;;11.93;;
54171;SDS011;40076;52.354;4.970;2024-02-14T06:48:43;39.08;;;11.68;;
54171;SDS011;40076;52.354;4.970;2024-02-14T06:51:11;39.92;;;12.15;;
54171;SDS011;40076;52.354;4.970;2024-02-14T06:53:36;32.92;;;11.30;;
54171;SDS011;40076;52.354;4.970;2024-02-14T06:56:02;34.22;;;12.50;;
54171;SDS011;40076;52.354;4.970;2024-02-14T06:58:27;48.03;;;13.75;;
54171;SDS011;40076;52.354;4.970;2024-02-14T07:00:55;42.38;;;12.73;;
54171;SDS011;40076;52.354;4.970;2024-02-14T07:03:20;38.65;;;13.00;;
54171;SDS011;40076;52.354;4.970;2024-02-14T07:05:45;40.72;;;13.00;;
54171;SDS011;40076;52.354;4.970;2024-02-14T07:08:11;45.30;;;14.60;;
54171;SDS011;40076;52.354;4.970;2024-02-14T07:10:40;39.35;;;14.40;;
54171;SDS011;40076;52.354;4.970;2024-02-14T07:13:05;46.55;;;16.17;;
54171;SDS011;40076;52.354;4.970;2024-02-14T07:15:33;40.72;;;15.63;;
54171;SDS011;40076;52.354;4.970;2024-02-14T07:17:58;43.25;;;16.77;;
54171;SDS011;40076;52.354;4.970;2024-02-14T07:20:24;38.53;;;16.83;;
54171;SDS011;40076;52.354;4.970;2024-02-14T07:22:52;44.40;;;18.73;;
54171;SDS011;40076;52.354;4.970;2024-02-14T07:25:18;40.47;;;17.15;;
54171;SDS011;40076;52.354;4.970;2024-02-14T07:27:45;43.15;;;17.20;;
54171;SDS011;40076;52.354;4.970;2024-02-14T07:30:13;33.30;;;16.42;;
54171;SDS011;40076;52.354;4.970;2024-02-14T07:32:39;38.25;;;17.25;;
54171;SDS011;40076;52.354;4.970;2024-02-14T07:35:04;42.33;;;18.67;;
54171;SDS011;40076;52.354;4.970;2024-02-14T07:37:30;39.63;;;18.10;;
54171;SDS011;40076;52.354;4.970;2024-02-14T07:39:56;39.42;;;17.50;;
54171;SDS011;40076;52.354;4.970;2024-02-14T07:42:21;40.47;;;19.15;;
54171;SDS011;40076;52.354;4.970;2024-02-14T07:44:49;37.42;;;18.10;;
54171;SDS011;40076;52.354;4.970;2024-02-14T07:47:17;45.17;;;19.35;;
54171;SDS011;40076;52.354;4.970;2024-02-14T07:49:42;43.15;;;18.40;;
54171;SDS011;40076;52.354;4.970;2024-02-14T07:52:07;42.20;;;17.77;;
54171;SDS011;40076;52.354;4.970;2024-02-14T07:54:33;44.22;;;20.17;;
54171;SDS011;40076;52.354;4.970;2024-02-14T07:56:58;40.33;;;20.30;;
54171;SDS011;40076;52.354;4.970;2024-02-14T07:59:23;53.60;;;21.00;;
54171;SDS011;40076;52.354;4.970;2024-02-14T08:01:49;42.95;;;18.83;;
54171;SDS011;40076;52.354;4.970;2024-02-14T08:04:14;44.83;;;20.58;;
54171;SDS011;40076;52.354;4.970;2024-02-14T08:06:40;38.95;;;20.30;;
54171;SDS011;40076;52.354;4.970;2024-02-14T08:09:06;42.97;;;20.70;;
54171;SDS011;40076;52.354;4.970;2024-02-14T08:11:34;42.28;;;18.83;;
54171;SDS011;40076;52.354;4.970;2024-02-14T08:14:03;39.90;;;20.30;;
54171;SDS011;40076;52.354;4.970;2024-02-14T08:16:30;39.58;;;18.80;;
54171;SDS011;40076;52.354;4.970;2024-02-14T08:18:55;39.47;;;20.15;;
54171;SDS011;40076;52.354;4.970;2024-02-14T08:21:27;50.92;;;19.98;;
54171;SDS011;40076;52.354;4.970;2024-02-14T08:23:55;34.17;;;18.00;;
54171;SDS011;40076;52.354;4.970;2024-02-14T08:26:21;35.95;;;18.35;;
54171;SDS011;40076;52.354;4.970;2024-02-14T08:28:49;41.05;;;18.23;;
54171;SDS011;40076;52.354;4.970;2024-02-14T08:31:14;43.92;;;19.92;;
54171;SDS011;40076;52.354;4.970;2024-02-14T08:33:40;46.22;;;18.98;;
54171;SDS011;40076;52.354;4.970;2024-02-14T08:36:05;38.35;;;20.50;;
54171;SDS011;40076;52.354;4.970;2024-02-14T08:38:31;38.20;;;18.90;;
54171;SDS011;40076;52.354;4.970;2024-02-14T08:40:57;43.60;;;21.00;;
54171;SDS011;40076;52.354;4.970;2024-02-14T08:43:22;46.25;;;21.83;;
54171;SDS011;40076;52.354;4.970;2024-02-14T08:45:50;40.35;;;20.63;;
54171;SDS011;40076;52.354;4.970;2024-02-14T08:48:18;42.92;;;21.95;;
54171;SDS011;40076;52.354;4.970;2024-02-14T08:50:47;42.13;;;21.88;;
54171;SDS011;40076;52.354;4.970;2024-02-14T08:53:52;47.40;;;22.10;;
54171;SDS011;40076;52.354;4.970;2024-02-14T08:56:22;43.65;;;22.55;;
54171;SDS011;40076;52.354;4.970;2024-02-14T08:58:57;40.92;;;21.75;;
54171;SDS011;40076;52.354;4.970;2024-02-14T09:01:23;36.97;;;21.90;;
54171;SDS011;40076;52.354;4.970;2024-02-14T09:03:48;38.00;;;21.17;;
54171;SDS011;40076;52.354;4.970;2024-02-14T09:06:16;38.00;;;20.40;;
54171;SDS011;40076;52.354;4.970;2024-02-14T09:08:45;28.30;;;18.00;;
54171;SDS011;40076;52.354;4.970;2024-02-14T09:11:10;28.05;;;18.05;;
54171;SDS011;40076;52.354;4.970;2024-02-14T09:13:37;27.25;;;15.63;;
54171;SDS011;40076;52.354;4.970;2024-02-14T09:16:03;24.67;;;16.00;;
54171;SDS011;40076;52.354;4.970;2024-02-14T09:18:28;21.65;;;13.70;;
54171;SDS011;40076;52.354;4.970;2024-02-14T09:20:56;21.38;;;12.80;;
54171;SDS011;40076;52.354;4.970;2024-02-14T09:23:21;17.38;;;12.32;;
54171;SDS011;40076;52.354;4.970;2024-02-14T09:25:48;16.02;;;11.18;;
54171;SDS011;40076;52.354;4.970;2024-02-14T09:28:15;15.05;;;11.70;;
54171;SDS011;40076;52.354;4.970;2024-02-14T09:30:41;16.30;;;11.25;;
54171;SDS011;40076;52.354;4.970;2024-02-14T09:33:06;14.27;;;11.35;;
54171;SDS011;40076;52.354;4.970;2024-02-14T09:35:32;14.27;;;11.18;;
54171;SDS011;40076;52.354;4.970;2024-02-14T09:37:57;16.52;;;12.80;;
54171;SDS011;40076;52.354;4.970;2024-02-14T09:40:25;15.60;;;11.50;;
54171;SDS011;40076;52.354;4.970;2024-02-14T09:42:53;14.38;;;11.70;;
54171;SDS011;40076;52.354;4.970;2024-02-14T09:45:21;13.15;;;10.73;;
54171;SDS011;40076;52.354;4.970;2024-02-14T09:47:49;13.57;;;11.07;;
54171;SDS011;40076;52.354;4.970;2024-02-14T09:50:19;14.45;;;11.40;;
54171;SDS011;40076;52.354;4.970;2024-02-14T09:52:46;14.20;;;11.38;;
54171;SDS011;40076;52.354;4.970;2024-02-14T09:55:13;14.93;;;11.38;;
54171;SDS011;40076;52.354;4.970;2024-02-14T09:57:41;15.35;;;11.35;;
54171;SDS011;40076;52.354;4.970;2024-02-14T10:00:09;16.77;;;12.57;;
54171;SDS011;40076;52.354;4.970;2024-02-14T10:02:35;15.75;;;12.48;;
54171;SDS011;40076;52.354;4.970;2024-02-14T10:05:03;17.77;;;12.80;;
54171;SDS011;40076;52.354;4.970;2024-02-14T10:07:29;16.17;;;12.93;;
54171;SDS011;40076;52.354;4.970;2024-02-14T10:10:05;17.98;;;13.48;;
54171;SDS011;40076;52.354;4.970;2024-02-14T10:12:32;17.83;;;14.10;;
54171;SDS011;40076;52.354;4.970;2024-02-14T10:14:57;17.88;;;13.73;;
54171;SDS011;40076;52.354;4.970;2024-02-14T10:17:24;19.45;;;15.18;;
54171;SDS011;40076;52.354;4.970;2024-02-14T10:19:58;20.92;;;15.52;;
54171;SDS011;40076;52.354;4.970;2024-02-14T10:22:25;21.10;;;16.38;;
54171;SDS011;40076;52.354;4.970;2024-02-14T10:24:57;21.85;;;15.20;;
54171;SDS011;40076;52.354;4.970;2024-02-14T10:27:25;18.67;;;14.85;;
54171;SDS011;40076;52.354;4.970;2024-02-14T10:29:50;18.85;;;14.23;;
54171;SDS011;40076;52.354;4.970;2024-02-14T10:32:18;22.42;;;14.57;;
54171;SDS011;40076;52.354;4.970;2024-02-14T10:34:45;22.55;;;14.65;;
54171;SDS011;40076;52.354;4.970;2024-02-14T10:37:13;19.02;;;13.20;;
54171;SDS011;40076;52.354;4.970;2024-02-14T10:39:41;17.60;;;13.52;;
54171;SDS011;40076;52.354;4.970;2024-02-14T10:42:07;15.93;;;12.80;;
54171;SDS011;40076;52.354;4.970;2024-02-14T10:44:34;16.52;;;12.45;;
54171;SDS011;40076;52.354;4.970;2024-02-14T10:47:00;18.63;;;13.27;;
54171;SDS011;40076;52.354;4.970;2024-02-14T10:49:32;19.35;;;13.82;;
54171;SDS011;40076;52.354;4.970;2024-02-14T10:52:01;16.63;;;13.80;;
54171;SDS011;40076;52.354;4.970;2024-02-14T10:54:32;16.42;;;14.00;;
54171;SDS011;40076;52.354;4.970;2024-02-14T10:57:04;18.17;;;14.60;;
54171;SDS011;40076;52.354;4.970;2024-02-14T10:59:53;16.23;;;13.15;;
54171;SDS011;40076;52.354;4.970;2024-02-14T11:08:55;14.45;;;11.18;;
54171;SDS011;40076;52.354;4.970;2024-02-14T11:11:29;12.95;;;10.75;;
54171;SDS011;40076;52.354;4.970;2024-02-14T11:13:58;12.82;;;10.95;;
54171;SDS011;40076;52.354;4.970;2024-02-14T11:16:30;13.23;;;10.95;;
54171;SDS011;40076;52.354;4.970;2024-02-14T11:22:21;11.40;;;10.23;;
54171;SDS011;40076;52.354;4.970;2024-02-14T11:24:51;12.15;;;10.85;;
54171;SDS011;40076;52.354;4.970;2024-02-14T11:27:50;11.77;;;10.57;;
54171;SDS011;40076;52.354;4.970;2024-02-14T11:30:44;11.63;;;10.43;;
54171;SDS011;40076;52.354;4.970;2024-02-14T11:33:43;11.43;;;10.23;;
54171;SDS011;40076;52.354;4.970;2024-02-14T11:36:25;17.17;;;12.07;;
54171;SDS011;40076;52.354;4.970;2024-02-14T11:38:51;14.15;;;12.65;;
54171;SDS011;40076;52.354;4.970;2024-02-14T11:41:27;14.75;;;13.05;;
54171;SDS011;40076;52.354;4.970;2024-02-14T11:44:07;13.95;;;12.45;;
54171;SDS011;40076;52.354;4.970;2024-02-14T11:50:09;13.75;;;12.43;;
54171;SDS011;40076;52.354;4.970;2024-02-14T11:52:42;13.55;;;12.05;;
54171;SDS011;40076;52.354;4.970;2024-02-14T11:55:19;14.00;;;12.60;;
54171;SDS011;40076;52.354;4.970;2024-02-14T11:58:13;14.38;;;12.68;;
54171;SDS011;40076;52.354;4.970;2024-02-14T12:00:41;13.15;;;11.60;;
54171;SDS011;40076;52.354;4.970;2024-02-14T12:06:38;14.15;;;12.52;;
54171;SDS011;40076;52.354;4.970;2024-02-14T12:09:12;13.77;;;12.05;;
54171;SDS011;40076;52.354;4.970;2024-02-14T12:12:21;14.23;;;12.75;;
54171;SDS011;40076;52.354;4.970;2024-02-14T12:14:56;14.13;;;12.60;;
54171;SDS011;40076;52.354;4.970;2024-02-14T12:17:27;14.25;;;12.75;;
54171;SDS011;40076;52.354;4.970;2024-02-14T12:20:04;14.38;;;12.63;;
54171;SDS011;40076;52.354;4.970;2024-02-14T12:22:50;16.50;;;12.43;;
54171;SDS011;40076;52.354;4.970;2024-02-14T12:26:00;14.65;;;13.25;;
54171;SDS011;40076;52.354;4.970;2024-02-14T12:28:51;16.52;;;14.65;;
54171;SDS011;40076;52.354;4.970;2024-02-14T12:31:25;17.25;;;15.45;;
54171;SDS011;40076;52.354;4.970;2024-02-14T12:33:50;17.70;;;15.55;;
54171;SDS011;40076;52.354;4.970;2024-02-14T12:36:26;18.73;;;16.17;;
54171;SDS011;40076;52.354;4.970;2024-02-14T12:39:36;19.88;;;15.10;;
54171;SDS011;40076;52.354;4.970;2024-02-14T12:42:15;16.67;;;14.98;;
54171;SDS011;40076;52.354;4.970;2024-02-14T12:44:51;17.95;;;14.98;;
54171;SDS011;40076;52.354;4.970;2024-02-14T12:47:21;14.85;;;13.23;;
54171;SDS011;40076;52.354;4.970;2024-02-14T12:49:58;15.38;;;13.77;;
54171;SDS011;40076;52.354;4.970;2024-02-14T12:52:35;15.38;;;13.77;;
54171;SDS011;40076;52.354;4.970;2024-02-14T12:55:03;14.57;;;13.02;;
54171;SDS011;40076;52.354;4.970;2024-02-14T12:57:29;15.50;;;12.55;;
54171;SDS011;40076;52.354;4.970;2024-02-14T13:00:07;11.35;;;10.15;;
54171;SDS011;40076;52.354;4.970;2024-02-14T13:02:35;11.77;;;10.55;;
54171;SDS011;40076;52.354;4.970;2024-02-14T13:05:04;10.40;;;9.30;;
54171;SDS011;40076;52.354;4.970;2024-02-14T13:07:32;10.02;;;8.77;;
54171;SDS011;40076;52.354;4.970;2024-02-14T13:10:02;10.23;;;9.05;;
54171;SDS011;40076;52.354;4.970;2024-02-14T13:12:33;11.52;;;9.15;;
54171;SDS011;40076;52.354;4.970;2024-02-14T13:15:05;10.70;;;8.40;;
54171;SDS011;40076;52.354;4.970;2024-02-14T13:17:31;8.52;;;7.65;;
54171;SDS011;40076;52.354;4.970;2024-02-14T13:26:18;9.05;;;7.97;;
54171;SDS011;40076;52.354;4.970;2024-02-14T13:28:46;9.23;;;8.00;;
54171;SDS011;40076;52.354;4.970;2024-02-14T13:31:19;10.57;;;8.35;;
54171;SDS011;40076;52.354;4.970;2024-02-14T13:36:46;9.15;;;8.18;;
54171;SDS011;40076;52.354;4.970;2024-02-14T13:39:12;9.85;;;8.18;;
54171;SDS011;40076;52.354;4.970;2024-02-14T13:42:03;8.20;;;6.80;;
54171;SDS011;40076;52.354;4.970;2024-02-14T13:44:48;7.00;;;6.10;;
54171;SDS011;40076;52.354;4.970;2024-02-14T13:47:26;10.15;;;7.10;;
54171;SDS011;40076;52.354;4.970;2024-02-14T13:53:11;9.10;;;6.78;;
54171;SDS011;40076;52.354;4.970;2024-02-14T13:55:48;9.57;;;6.85;;
54171;SDS011;40076;52.354;4.970;2024-02-14T13:58:31;11.70;;;7.80;;
54171;SDS011;40076;52.354;4.970;2024-02-14T14:01:00;9.32;;;7.70;;
54171;SDS011;40076;52.354;4.970;2024-02-14T14:06:52;26.85;;;24.25;;
54171;SDS011;40076;52.354;4.970;2024-02-14T14:12:54;20.98;;;18.88;;
54171;SDS011;40076;52.354;4.970;2024-02-14T14:15:45;14.32;;;12.32;;
54171;SDS011;40076;52.354;4.970;2024-02-14T14:18:50;16.00;;;10.57;;
54171;SDS011;40076;52.354;4.970;2024-02-14T14:21:54;21.92;;;17.83;;
54171;SDS011;40076;52.354;4.970;2024-02-14T14:27:35;25.38;;;18.25;;
54171;SDS011;40076;52.354;4.970;2024-02-14T14:30:04;18.80;;;15.27;;
54171;SDS011;40076;52.354;4.970;2024-02-14T14:32:29;25.00;;;20.77;;
54171;SDS011;40076;52.354;4.970;2024-02-14T14:34:55;12.48;;;7.30;;
54171;SDS011;40076;52.354;4.970;2024-02-14T14:37:23;15.88;;;9.50;;
54171;SDS011;40076;52.354;4.970;2024-02-14T14:39:49;14.48;;;11.02;;
54171;SDS011;40076;52.354;4.970;2024-02-14T14:42:14;11.95;;;9.35;;
54171;SDS011;40076;52.354;4.970;2024-02-14T14:44:45;13.38;;;9.00;;
54171;SDS011;40076;52.354;4.970;2024-02-14T14:47:14;23.83;;;20.65;;
54171;SDS011;40076;52.354;4.970;2024-02-14T14:49:39;8.57;;;5.97;;
54171;SDS011;40076;52.354;4.970;2024-02-14T14:52:05;33.03;;;29.70;;
54171;SDS011;40076;52.354;4.970;2024-02-14T14:54:30;26.17;;;23.40;;
54171;SDS011;40076;52.354;4.970;2024-02-14T14:56:58;16.33;;;14.77;;
54171;SDS011;40076;52.354;4.970;2024-02-14T14:59:23;14.80;;;13.32;;
54171;SDS011;40076;52.354;4.970;2024-02-14T15:01:49;6.07;;;4.60;;
54171;SDS011;40076;52.354;4.970;2024-02-14T15:04:15;12.20;;;11.10;;
54171;SDS011;40076;52.354;4.970;2024-02-14T15:06:41;6.05;;;4.57;;
54171;SDS011;40076;52.354;4.970;2024-02-14T15:09:09;4.28;;;3.40;;
54171;SDS011;40076;52.354;4.970;2024-02-14T15:11:35;5.18;;;2.95;;
54171;SDS011;40076;52.354;4.970;2024-02-14T15:14:01;4.00;;;2.72;;